< Typhoon 202202 2022 Season Typhoon 202204 >
Typhoon 202203 (CHABA)
General InformationTrack Information on Google MapsDetailed Wind InformationForecast History on Google MapsAccess Analytics MapList of All Images || NewsDisaster Info.JMA Disaster Info. XMLWeblogTrackbackTyphoon FrontTwiphoonTyphoon Now!Typhoon ImaginationResourceGoogle EarthGE AnimationAtom FeedGeoJSON
Detalied Best Track (Time Zone = UTC)
Year Month Day Hour Lat. Long. Pressure (hPa) Wind (kt) Class Image Chart
2022 6 28 18 14.6 116.5 998 0 2 Image Chart
2022 6 29 00 15.0 116.3 998 0 2 Image Chart
2022 6 29 06 15.5 116.2 998 0 2 Image Chart
2022 6 29 12 15.6 116.0 998 0 2 Image Chart
2022 6 29 18 15.6 115.7 998 0 2 Image Chart
2022 6 30 00 15.8 115.5 994 35 3 Image Chart
2022 6 30 06 16.1 115.6 992 40 3 Image Chart
2022 6 30 12 17.0 115.2 990 45 3 Image Chart
2022 6 30 18 17.5 114.6 985 50 4 Image Chart
2022 7 1 00 18.3 114.1 980 55 4 Image Chart
2022 7 1 06 18.9 113.1 980 55 4 Image Chart
2022 7 1 12 19.5 112.6 975 60 4 Image Chart
2022 7 1 18 20.2 112.0 970 65 5 Image Chart
2022 7 2 00 20.6 111.7 965 70 5 Image Chart
2022 7 2 06 21.2 111.2 965 70 5 Image Chart
2022 7 2 12 21.9 110.8 980 50 4 Image Chart
2022 7 2 18 22.8 110.4 985 45 3 Image Chart
2022 7 3 00 23.6 110.6 990 35 3 Image Chart
2022 7 3 06 24.4 110.6 994 0 2 Image Chart
2022 7 3 12 24.8 110.8 994 0 2 Image Chart
2022 7 3 18 25.3 111.2 996 0 2 Image Chart
2022 7 4 00 26.1 111.7 996 0 2 Image Chart
2022 7 4 06 27.1 112.0 996 0 2 Image Chart
2022 7 4 12 27.7 112.6 996 0 2 Image Chart
2022 7 4 18 28.6 113.4 996 0 2 Image Chart
2022 7 5 00 29.8 113.9 996 0 2 Image Chart
2022 7 5 06 30.8 114.5 996 0 2 Image Chart
2022 7 5 12 31.8 115.1 996 0 2 Image Chart
2022 7 5 18 32.8 115.6 994 0 6 Image Chart
2022 7 6 00 34.2 116.9 996 0 6 Image Chart
2022 7 6 06 35.4 117.9 996 0 6 Image Chart
2022 7 6 12 37.1 119.5 996 0 6 Image Chart
2022 7 6 18 38.7 120.8 996 0 6 Image Chart
2022 7 7 00 38.8 121.9 998 0 6 Image Chart
2022 7 7 06 38.8 122.8 998 0 6 Image Chart
2022 7 7 12 39.0 124.0 1000 0 6 Image Chart
2022 7 7 18 39.1 124.8 1000 0 6 Image Chart
Japan Meteorological Agency Best Track Data | Correction Date : 2022-10-05
< Typhoon 202202 2022 Season Typhoon 202204 >

Help